Home > Products > Valid Products > TAF

000
FTUS42 KTBW 051120
TAFSRQ
TAF
KSRQ 051120Z 0512/0612 11005KT P6SM FEW035 SCT250
     FM051600 23007KT P6SM SCT030 BKN250
     FM051800 26006KT P6SM VCTS SCT035CB BKN250
     FM060000 03006KT P6SM SCT040 BKN250
     FM060300 09003KT P6SM FEW040 BKN200=



000
FTUS42 KTBW 051120
TAFFMY
TAF
KFMY 051120Z 0512/0612 09003KT P6SM SCT250
      TEMPO 0512/0513 5SM BR
     FM051500 14007KT P6SM SCT030 BKN250
     FM051800 VRB05KT P6SM VCTS SCT035CB BKN250
     FM052000 24008KT P6SM VCTS SCT035CB BKN250
     FM060000 VRB03KT P6SM FEW040 BKN250=



000
FTUS42 KTBW 051120
TAFRSW
TAF
KRSW 051120Z 0512/0612 07003KT P6SM SCT250
      TEMPO 0512/0513 5SM BR
     FM051500 14007KT P6SM SCT030 BKN250
     FM052000 17008KT P6SM VCTS SCT035CB BKN250
     FM060000 VRB03KT P6SM FEW040 BKN250=



000
FTUS42 KTBW 051120
TAFPIE
TAF
KPIE 051120Z 0512/0612 12003KT P6SM FEW035 SCT250
     FM051500 08007KT P6SM SCT030 BKN250
     FM051900 30007KT P6SM VCTS SCT035CB BKN250
     FM060000 36005KT P6SM BKN040 BKN250
     FM060300 07002KT P6SM FEW040 BKN250=



000
FTUS42 KTBW 051120
TAFTPA
TAF
KTPA 051120Z 0512/0612 11003KT P6SM FEW025 SCT250
     FM051500 23007KT P6SM SCT030 BKN250
     FM051800 26008KT P6SM VCTS SCT040CB BKN250
     FM060000 33004KT P6SM SCT040 BKN250
     FM060300 07002KT P6SM FEW040 BKN250=



000
FTUS42 KTBW 050915 AAA
TAFTPA
TAF AMD
KTPA 050915Z 0509/0606 11003KT P6SM FEW035 SCT080 BKN250
     FM051500 23007KT P6SM SCT030 BKN250
     FM051800 26004KT P6SM VCTS SCT040CB BKN250
     FM060000 33004KT P6SM SCT040 BKN250
     FM060300 07002KT P6SM FEW040 BKN250=



000
FTUS42 KTBW 050540
TAFRSW
TAF
KRSW 050540Z 0506/0606 05003KT P6SM SCT250
      TEMPO 0506/0507 5SM FU
     FM051500 14007KT P6SM SCT030 BKN250
     FM051900 20007KT P6SM VCTS SCT035CB BKN250
     FM060000 VRB03KT P6SM FEW040 BKN250=



000
FTUS42 KTBW 050540
TAFPIE
TAF
KPIE 050540Z 0506/0606 12004KT P6SM FEW035 BKN250
     FM051500 08007KT P6SM SCT030 BKN250
     FM051900 30007KT P6SM VCTS SCT035CB BKN250
     FM060000 36005KT P6SM BKN040 BKN250
     FM060300 07002KT P6SM FEW040 BKN250=



000
FTUS42 KTBW 050540
TAFSRQ
TAF
KSRQ 050540Z 0506/0606 09005KT P6SM BKN250
     FM051600 23007KT P6SM SCT030 BKN250
     FM051800 26006KT P6SM VCTS SCT035CB
     FM060000 33006KT P6SM SCT040 BKN250
     FM060300 07003KT P6SM BKN035 BKN200=



000
FTUS42 KTBW 050540
TAFFMY
TAF
KFMY 050540Z 0506/0606 07003KT P6SM SCT250
     FM051500 15007KT P6SM SCT030 BKN250
     FM051800 24007KT P6SM VCTS SCT035CB BKN250
     FM060000 VRB03KT P6SM FEW040 BKN250=



000
FTUS42 KTBW 050540
TAFTPA
TAF
KTPA 050540Z 0506/0606 VRB03KT P6SM FEW035 SCT080 BKN250
      TEMPO 0506/0508 4SM FU
     FM051500 23007KT P6SM SCT030 BKN250
     FM051800 26004KT P6SM VCTS SCT040CB BKN250
     FM060000 33004KT P6SM SCT040 BKN250
     FM060300 07002KT P6SM FEW040 BKN250=



000
FTUS42 KTBW 050309 AAA
TAFRSW
TAF AMD
KRSW 050309Z 0503/0524 04004KT 3SM FU FEW050 BKN250
     FM050400 05003KT P6SM FEW050 SCT250
     FM051500 17006KT P6SM FEW030 SCT250
     FM051700 VRB06KT P6SM VCTS SCT045CB BKN250=



000
FTUS42 KTBW 050307 AAB
TAFTPA
TAF AMD
KTPA 050307Z 0503/0524 VRB02KT 4SM FU FEW015 BKN070 OVC120
     FM050400 VRB02KT P6SM SCT070 BKN200
     FM051400 22006KT P6SM FEW030 SCT250
     FM051600 VRB06KT P6SM VCTS SCT045CB BKN250=



000
FTUS42 KTBW 050307 AAB
TAFTPA
TAF AMD
KTPA 050307Z 0503/0524 VRB02KT 4SM FU FEW015 BKN070 OVC120
     FM050400 VRB02KT P6SM SCT070 BKN200
     FM051400 22006KT P6SM FEW030 SCT250
     FM051600 VRB06KT P6SM VCTS SCT045CB BKN250=



000
FTUS42 KTBW 050120 AAA
TAFPIE
TAF AMD
KPIE 050120Z 0501/0524 VRB05KT P6SM VCTS FEW035CB BKN250
      TEMPO 0501/0502 VRB10G15KT 6SM TSRA BKN025CB
     FM050300 VRB03KT P6SM SCT050 BKN250
     FM051400 15007KT P6SM FEW030 SCT250
     FM051600 VRB06KT P6SM VCTS SCT045CB BKN250=



000
FTUS42 KTBW 050119 AAA
TAFTPA
TAF AMD
KTPA 050119Z 0501/0524 VRB06KT P6SM VCTS SCT045CB BKN250
      TEMPO 0501/0502 VRB10KT 4SM TSRA BKN025CB
     FM050300 VRB02KT P6SM SCT045 BKN250
     FM051400 22006KT P6SM FEW030 SCT250
     FM051600 VRB06KT P6SM VCTS SCT045CB BKN250=



000
FTUS42 KTBW 050119 AAA
TAFTPA
TAF AMD
KTPA 050119Z 0501/0524 VRB06KT P6SM VCTS SCT045CB BKN250
      TEMPO 0501/0502 VRB10KT 4SM TSRA BKN025CB
     FM050300 VRB02KT P6SM SCT045 BKN250
     FM051400 22006KT P6SM FEW030 SCT250
     FM051600 VRB06KT P6SM VCTS SCT045CB BKN250=



000
FTUS42 KTBW 050118 AAA
TAFSRQ
TAF AMD
KSRQ 050118Z 0501/0524 VRB04KT P6SM BKN050 BKN250
     FM051400 20007KT P6SM FEW030 SCT250
     FM051700 VRB06KT P6SM VCTS SCT045CB BKN250=



000
FTUS42 KTBW 042354 CCA
TAFPIE
TAF COR
KPIE 042354Z 0500/0524 VRB05KT P6SM VCTS FEW035CB BKN250
      TEMPO 0500/0501 VRB15G25KT 3SM TSRA BKN025CB
     FM050300 VRB03KT P6SM SCT050 BKN250
     FM051400 15007KT P6SM FEW030 SCT250
     FM051600 VRB06KT P6SM VCTS SCT045CB BKN250=



000
FTUS42 KTBW 042354 CCA
TAFPIE
TAF COR
KPIE 042354Z 0500/0524 VRB05KT P6SM VCTS FEW035CB BKN250
      TEMPO 0500/0501 VRB15G25KT 3SM TSRA BKN025CB
     FM050300 VRB03KT P6SM SCT050 BKN250
     FM051400 15007KT P6SM FEW030 SCT250
     FM051600 VRB06KT P6SM VCTS SCT045CB BKN250=



000
FTUS42 KTBW 042351 CCA
TAFSRQ
TAF COR
KSRQ 042351Z 0500/0524 12012G21KT P6SM VCTS BKN060CB BKN250
     FM050200 VRB04KT P6SM BKN050 BKN250
     FM051400 20007KT P6SM FEW030 SCT250
     FM051700 VRB06KT P6SM VCTS SCT045CB BKN250=



000
FTUS42 KTBW 042351 CCA
TAFSRQ
TAF COR
KSRQ 042351Z 0500/0524 12012G21KT P6SM VCTS BKN060CB BKN250
     FM050200 VRB04KT P6SM BKN050 BKN250
     FM051400 20007KT P6SM FEW030 SCT250
     FM051700 VRB06KT P6SM VCTS SCT045CB BKN250=



000
FTUS42 KTBW 042350 CCA
TAFTPA
TAF COR
KTPA 042350Z 0500/0524 VRB06KT P6SM VCTS SCT045CB BKN250
      TEMPO 0500/0501 VRB15G25KT 1SM TSRA BKN025CB
     FM050300 VRB02KT P6SM SCT045 BKN250
     FM051400 22006KT P6SM FEW030 SCT250
     FM051600 VRB06KT P6SM VCTS SCT045CB BKN250=



000
FTUS42 KTBW 042350 CCA
TAFTPA
TAF COR
KTPA 042350Z 0500/0524 VRB06KT P6SM VCTS SCT045CB BKN250
      TEMPO 0500/0501 VRB15G25KT 1SM TSRA BKN025CB
     FM050300 VRB02KT P6SM SCT045 BKN250
     FM051400 22006KT P6SM FEW030 SCT250
     FM051600 VRB06KT P6SM VCTS SCT045CB BKN250=



000
FTUS42 KTBW 042335
TAFFMY
TAF
KFMY 042335Z 0500/0524 VRB06KT P6SM VCSH SCT040 BKN150
     FM050200 VRB03KT P6SM SCT050 BKN250
     FM051500 17005KT P6SM FEW030 SCT250
     FM051700 VRB06KT P6SM VCTS SCT045CB BKN250=



000
FTUS42 KTBW 042335
TAFPIE
TAF
KPIE 042335Z 0500/0524 VRB05KT P6SM VCTS FEW035CB BKN250
     FM050300 VRB03KT P6SM SCT050 BKN250
     FM051400 15007KT P6SM FEW030 SCT250
     FM051600 VRB06KT P6SM VCTS SCT045CB BKN250=



000
FTUS42 KTBW 042335
TAFTPA
TAF
KTPA 042335Z 0500/0524 VRB06KT P6SM VCTS SCT045CB BKN250
     FM050300 VRB02KT P6SM SCT045 BKN250
     FM051400 22006KT P6SM FEW030 SCT250
     FM051600 VRB06KT P6SM VCTS SCT045CB BKN250=



000
FTUS42 KTBW 042335
TAFSRQ
TAF
KSRQ 042335Z 0500/0524 VRB05KT P6SM VCTS BKN060CB BKN250
     FM050300 VRB04KT P6SM BKN050 BKN250
     FM051400 20007KT P6SM FEW030 SCT250
     FM051700 VRB06KT P6SM VCTS SCT045CB BKN250=



000
FTUS42 KTBW 042335
TAFFMY
TAF
KFMY 042335Z 0500/0524 VRB06KT P6SM VCSH SCT040 BKN150
     FM050200 VRB03KT P6SM SCT050 BKN250
     FM051500 17005KT P6SM FEW030 SCT250
     FM051700 VRB06KT P6SM VCTS SCT045CB BKN250=



000
FTUS42 KTBW 042335
TAFPIE
TAF
KPIE 042335Z 0500/0524 VRB05KT P6SM VCTS FEW035CB BKN250
     FM050300 VRB03KT P6SM SCT050 BKN250
     FM051400 15007KT P6SM FEW030 SCT250
     FM051600 VRB06KT P6SM VCTS SCT045CB BKN250=



000
FTUS42 KTBW 042335
TAFRSW
TAF
KRSW 042335Z 0500/0524 VRB06KT P6SM VCSH SCT040 BKN150
     FM050200 VRB03KT P6SM SCT050 BKN250
     FM051500 17006KT P6SM FEW030 SCT250
     FM051700 VRB06KT P6SM VCTS SCT045CB BKN250=



000
FTUS42 KTBW 042335
TAFSRQ
TAF
KSRQ 042335Z 0500/0524 VRB05KT P6SM VCTS BKN060CB BKN250
     FM050300 VRB04KT P6SM BKN050 BKN250
     FM051400 20007KT P6SM FEW030 SCT250
     FM051700 VRB06KT P6SM VCTS SCT045CB BKN250=



000
FTUS42 KTBW 042335
TAFTPA
TAF
KTPA 042335Z 0500/0524 VRB06KT P6SM VCTS SCT045CB BKN250
     FM050300 VRB02KT P6SM SCT045 BKN250
     FM051400 22006KT P6SM FEW030 SCT250
     FM051600 VRB06KT P6SM VCTS SCT045CB BKN250=



000
FTUS42 KTBW 042335
TAFRSW
TAF
KRSW 042335Z 0500/0524 VRB06KT P6SM VCSH SCT040 BKN150
     FM050200 VRB03KT P6SM SCT050 BKN250
     FM051500 17006KT P6SM FEW030 SCT250
     FM051700 VRB06KT P6SM VCTS SCT045CB BKN250=



000
FTUS42 KTBW 042205 AAC
TAFRSW
TAF AMD
KRSW 042205Z 0422/0518 21007KT P6SM VCTS SCT040CB BKN120
      TEMPO 0422/0423 VRB15G25KT 4SM TSRA SCT010 BKN025CB
     FM042300 10007KT P6SM VCTS SCT040CB BKN150
     FM050200 10003KT P6SM SCT050 BKN250
     FM051500 17006KT P6SM FEW030 SCT250=



000
FTUS42 KTBW 042125 AAB
TAFRSW
TAF AMD
KRSW 042125Z 0421/0518 21007KT P6SM VCTS SCT040CB BKN120
      TEMPO 0421/0423 VRB25G35KT 1SM TSRA SCT010 BKN025CB
     FM042300 10007KT P6SM VCTS SCT040CB BKN150
     FM050200 10003KT P6SM SCT050 BKN250
     FM051500 17006KT P6SM FEW030 SCT250=



000
FTUS42 KTBW 042125 AAB
TAFFMY
TAF AMD
KFMY 042125Z 0421/0518 32007KT P6SM VCTS SCT040CB BKN120
      TEMPO 0421/0423 VRB20G30KT 1SM TSRA SCT010 BKN025CB
     FM042300 10007KT P6SM VCTS SCT040CB BKN150
     FM050200 10003KT P6SM SCT050 BKN250
     FM051500 17005KT P6SM FEW030 SCT250=



000
FTUS42 KTBW 042058 AAA
TAFTPA
TAF AMD
KTPA 042058Z 0421/0518 29007KT P6SM VCTS SCT045CB BKN250
     FM050000 VRB06KT P6SM SCT045 BKN250
     FM050300 VRB02KT P6SM SCT045 BKN250
     FM051400 22006KT P6SM FEW030 SCT250=



000
FTUS42 KTBW 042058 AAA
TAFTPA
TAF AMD
KTPA 042058Z 0421/0518 29007KT P6SM VCTS SCT045CB BKN250
     FM050000 VRB06KT P6SM SCT045 BKN250
     FM050300 VRB02KT P6SM SCT045 BKN250
     FM051400 22006KT P6SM FEW030 SCT250=



000
FTUS42 KTBW 042045 AAA
TAFRSW
TAF AMD
KRSW 042045Z 0421/0518 21007KT P6SM VCTS SCT040CB BKN120
      TEMPO 0421/0423 VRB15G25KT 3SM TSRA SCT010 BKN025CB
     FM042300 10007KT P6SM VCTS SCT040CB BKN150
     FM050200 10003KT P6SM SCT050 BKN250
     FM051500 17006KT P6SM FEW030 SCT250=



000
FTUS42 KTBW 042045 AAA
TAFRSW
TAF AMD
KRSW 042045Z 0421/0518 21007KT P6SM VCTS SCT040CB BKN120
      TEMPO 0421/0423 VRB15G25KT 3SM TSRA SCT010 BKN025CB
     FM042300 10007KT P6SM VCTS SCT040CB BKN150
     FM050200 10003KT P6SM SCT050 BKN250
     FM051500 17006KT P6SM FEW030 SCT250=



000
FTUS42 KTBW 042045 AAA
TAFFMY
TAF AMD
KFMY 042045Z 0421/0518 32007KT P6SM VCTS SCT040CB BKN120
      TEMPO 0421/0423 VRB15G25KT 3SM TSRA SCT010 BKN025CB
     FM042300 10007KT P6SM VCTS SCT040CB BKN150
     FM050200 10003KT P6SM SCT050 BKN250
     FM051500 17005KT P6SM FEW030 SCT250=



000
FTUS42 KTBW 042045 AAA
TAFFMY
TAF AMD
KFMY 042045Z 0421/0518 32007KT P6SM VCTS SCT040CB BKN120
      TEMPO 0421/0423 VRB15G25KT 3SM TSRA SCT010 BKN025CB
     FM042300 10007KT P6SM VCTS SCT040CB BKN150
     FM050200 10003KT P6SM SCT050 BKN250
     FM051500 17005KT P6SM FEW030 SCT250=



000
FTUS42 KTBW 041850 AAA
TAFPIE
TAF AMD
KPIE 041850Z 0419/0518 10007KT P6SM VCTS SCT035CB BKN250
      TEMPO 0419/0420 VRB15G25KT 4SM TSRA BKN025CB OVC070
     FM042100 32008KT P6SM VCTS SCT035CB BKN250
     FM050000 VRB05KT P6SM FEW035 BKN250
     FM050300 11003KT P6SM SCT050 BKN250
     FM051400 15007KT P6SM FEW030 SCT250=



000
FTUS42 KTBW 041735
TAFTPA
TAF
KTPA 041735Z 0418/0518 24005KT P6SM VCTS SCT035CB BKN250
     FM042100 29007KT P6SM VCTS SCT045CB BKN250
     FM050000 VRB05KT P6SM SCT045 BKN250
     FM050300 VRB02KT P6SM SCT045 BKN250
     FM051400 22006KT P6SM FEW030 SCT250=



000
FTUS42 KTBW 041735
TAFSRQ
TAF
KSRQ 041735Z 0418/0518 25009KT P6SM VCTS SCT035CB BKN250
     FM042300 VRB05KT P6SM VCTS BKN060CB BKN250
     FM050300 09004KT P6SM BKN050 BKN250
     FM051400 20007KT P6SM FEW030 SCT250=



000
FTUS42 KTBW 041735
TAFPIE
TAF
KPIE 041735Z 0418/0518 28007KT P6SM VCTS SCT035CB BKN250
     FM042100 32008KT P6SM VCTS SCT035CB BKN250
     FM050000 VRB05KT P6SM FEW035 BKN250
     FM050300 11003KT P6SM SCT050 BKN250
     FM051400 15007KT P6SM FEW030 SCT250=



000
FTUS42 KTBW 041735
TAFFMY
TAF
KFMY 041735Z 0418/0518 23007KT P6SM VCTS SCT035CB BKN250
     FM042100 32007KT P6SM VCTS SCT040CB BKN120
     FM042300 10007KT P6SM VCTS SCT040CB BKN150
     FM050200 10003KT P6SM SCT050 BKN250
     FM051500 17005KT P6SM FEW030 SCT250=



000
FTUS42 KTBW 041735
TAFFMY
TAF
KFMY 041735Z 0418/0518 23007KT P6SM VCTS SCT035CB BKN250
     FM042100 32007KT P6SM VCTS SCT040CB BKN120
     FM042300 10007KT P6SM VCTS SCT040CB BKN150
     FM050200 10003KT P6SM SCT050 BKN250
     FM051500 17005KT P6SM FEW030 SCT250=



000
FTUS42 KTBW 041735
TAFRSW
TAF
KRSW 041735Z 0418/0518 18007KT P6SM VCTS SCT035CB BKN250
     FM042100 21007KT P6SM VCTS SCT040CB BKN120
     FM042300 10007KT P6SM VCTS SCT040CB BKN150
     FM050200 10003KT P6SM SCT050 BKN250
     FM051500 17006KT P6SM FEW030 SCT250=



000
FTUS42 KTBW 041735
TAFPIE
TAF
KPIE 041735Z 0418/0518 28007KT P6SM VCTS SCT035CB BKN250
     FM042100 32008KT P6SM VCTS SCT035CB BKN250
     FM050000 VRB05KT P6SM FEW035 BKN250
     FM050300 11003KT P6SM SCT050 BKN250
     FM051400 15007KT P6SM FEW030 SCT250=



000
FTUS42 KTBW 041735
TAFSRQ
TAF
KSRQ 041735Z 0418/0518 25009KT P6SM VCTS SCT035CB BKN250
     FM042300 VRB05KT P6SM VCTS BKN060CB BKN250
     FM050300 09004KT P6SM BKN050 BKN250
     FM051400 20007KT P6SM FEW030 SCT250=



000
FTUS42 KTBW 041735
TAFTPA
TAF
KTPA 041735Z 0418/0518 24005KT P6SM VCTS SCT035CB BKN250
     FM042100 29007KT P6SM VCTS SCT045CB BKN250
     FM050000 VRB05KT P6SM SCT045 BKN250
     FM050300 VRB02KT P6SM SCT045 BKN250
     FM051400 22006KT P6SM FEW030 SCT250=



000
FTUS42 KTBW 041735
TAFRSW
TAF
KRSW 041735Z 0418/0518 18007KT P6SM VCTS SCT035CB BKN250
     FM042100 21007KT P6SM VCTS SCT040CB BKN120
     FM042300 10007KT P6SM VCTS SCT040CB BKN150
     FM050200 10003KT P6SM SCT050 BKN250
     FM051500 17006KT P6SM FEW030 SCT250=



000
FTUS42 KTBW 041500 AAA
TAFTPA
TAF AMD
KTPA 041500Z 0415/0512 21005KT P6SM FEW020
     FM041700 24005KT P6SM VCTS SCT035CB BKN250
     FM042100 29007KT P6SM VCTS SCT045CB BKN250
     FM050000 VRB05KT P6SM SCT045 BKN250
     FM050300 09002KT P6SM SCT045 BKN250=



000
FTUS42 KTBW 041120
TAFTPA
TAF
KTPA 041120Z 0412/0512 VRB03KT P6SM FEW015 SCT250
     FM041400 18005KT P6SM FEW025 SCT250
     FM041700 24005KT P6SM VCTS SCT035CB BKN250
     FM042100 29007KT P6SM VCTS SCT045CB BKN250
     FM050000 VRB05KT P6SM SCT045 BKN250
     FM050300 09002KT P6SM SCT045 BKN250=



000
FTUS42 KTBW 041120
TAFFMY
TAF
KFMY 041120Z 0412/0512 VRB03KT P6SM SCT250
     FM041400 12006KT P6SM FEW025 SCT250
     FM041800 23007KT P6SM VCTS SCT035CB BKN250
     FM042100 32007KT P6SM VCTS SCT040CB BKN120
     FM042300 10007KT P6SM VCTS SCT040CB BKN150
     FM050200 10003KT P6SM SCT050 BKN250=



000
FTUS42 KTBW 041120
TAFRSW
TAF
KRSW 041120Z 0412/0512 VRB03KT P6SM SCT250
     FM041400 12006KT P6SM FEW025 SCT250
     FM041800 18007KT P6SM VCTS SCT035CB BKN250
     FM042100 21007KT P6SM VCTS SCT040CB BKN120
     FM042300 10007KT P6SM VCTS SCT040CB BKN150
     FM050200 10003KT P6SM SCT050 BKN250=



000
FTUS42 KTBW 041120
TAFSRQ
TAF
KSRQ 041120Z 0412/0512 10005KT P6SM SCT250
     FM041400 15005KT P6SM FEW025 SCT250
     FM041700 25009KT P6SM VCTS SCT035CB BKN250
     FM042300 VRB05KT P6SM VCTS BKN060CB BKN250
     FM050300 09004KT P6SM BKN050 BKN250=



000
FTUS42 KTBW 041120
TAFPIE
TAF
KPIE 041120Z 0412/0512 VRB04KT P6SM FEW045 SCT250
     FM041400 13005KT P6SM FEW025 SCT250
     FM041800 28007KT P6SM VCTS SCT035CB BKN250
     FM042100 32008KT P6SM VCTS SCT035CB BKN250
     FM050000 VRB05KT P6SM FEW035 BKN250
     FM050300 11003KT P6SM SCT050 BKN250=



000
FTUS42 KTBW 040905 AAA
TAFTPA
TAF AMD
KTPA 040905Z 0409/0506 VRB03KT P6SM FEW045 BKN250
     FM041400 16005KT P6SM FEW025 SCT250
     FM041800 24005KT P6SM VCTS SCT035CB BKN250
     FM042100 29007KT P6SM VCTS SCT045CB BKN250
     FM050000 VRB05KT P6SM SCT045 BKN250
     FM050300 09002KT P6SM SCT045 BKN250=



000
FTUS42 KTBW 040529
TAFPIE
TAF
KPIE 040529Z 0406/0506 VRB04KT P6SM FEW045 SCT250
     FM041400 13005KT P6SM FEW025 SCT250
     FM041800 28007KT P6SM VCTS SCT035CB BKN250
     FM042100 32008KT P6SM VCTS SCT035CB BKN250
     FM050000 VRB05KT P6SM FEW035 BKN250
     FM050300 11003KT P6SM SCT050 BKN250=



000
FTUS42 KTBW 040529
TAFSRQ
TAF
KSRQ 040529Z 0406/0506 10005KT P6SM BKN250
     FM041400 15005KT P6SM FEW025 SCT250
     FM041700 25009KT P6SM VCTS SCT035CB BKN250
     FM042300 VRB05KT P6SM VCTS BKN060CB BKN250
     FM050300 09004KT P6SM BKN050 BKN250=



000
FTUS42 KTBW 040529
TAFTPA
TAF
KTPA 040529Z 0406/0506 VRB03KT P6SM FEW045 BKN250
     FM041400 16005KT P6SM FEW025 SCT250
     FM041800 24005KT P6SM VCTS SCT035CB BKN250
     FM042100 29007KT P6SM VCTS SCT045CB BKN250
     FM050000 VRB05KT P6SM SCT045 BKN250
     FM050300 09002KT P6SM SCT045 BKN250=



000
FTUS42 KTBW 040529
TAFRSW
TAF
KRSW 040529Z 0406/0506 VRB03KT P6SM SCT250
     FM041400 12006KT P6SM FEW025 SCT250
     FM041800 18007KT P6SM VCTS SCT035CB BKN250
     FM042100 21007KT P6SM VCTS SCT040CB BKN120
     FM042300 10007KT P6SM VCTS SCT040CB BKN150
     FM050200 10003KT P6SM SCT050 BKN250=



000
FTUS42 KTBW 040529
TAFFMY
TAF
KFMY 040529Z 0406/0506 VRB03KT P6SM SCT250
     FM041400 12006KT P6SM FEW025 SCT250
     FM041800 23007KT P6SM VCTS SCT035CB BKN250
     FM042100 32007KT P6SM VCTS SCT040CB BKN120
     FM042300 10007KT P6SM VCTS SCT040CB BKN150
     FM050200 10003KT P6SM SCT050 BKN250=



000
FTUS42 KTBW 040309 AAA
TAFTPA
TAF AMD
KTPA 040309Z 0403/0424 13011KT P6SM FEW030 BKN250
     FM040500 16004KT P6SM FEW050 SCT250
     FM041500 20004KT P6SM SCT035 SCT250
     FM042000 28006KT P6SM VCTS SCT005CB SCT150 BKN250=



000
FTUS42 KTBW 040309 AAA
TAFTPA
TAF AMD
KTPA 040309Z 0403/0424 13011KT P6SM FEW030 BKN250
     FM040500 16004KT P6SM FEW050 SCT250
     FM041500 20004KT P6SM SCT035 SCT250
     FM042000 28006KT P6SM VCTS SCT005CB SCT150 BKN250=



000
FTUS42 KTBW 040104 AAA
TAFPIE
TAF AMD
KPIE 040104Z 0401/0424 09010G20KT P6SM VCTS FEW035CB SCT050 BKN250
     FM040200 09005KT P6SM SCT050 BKN250
     FM040400 00000KT P6SM FEW050 SCT250
     FM041500 04005KT P6SM SCT035 SCT250
     FM041800 21004KT P6SM VCTS FEW050CB SCT250
     FM042100 29006KT P6SM VCTS SCT050CB SCT150 BKN250=



000
FTUS42 KTBW 040104 AAA
TAFPIE
TAF AMD
KPIE 040104Z 0401/0424 09010G20KT P6SM VCTS FEW035CB SCT050 BKN250
     FM040200 09005KT P6SM SCT050 BKN250
     FM040400 00000KT P6SM FEW050 SCT250
     FM041500 04005KT P6SM SCT035 SCT250
     FM041800 21004KT P6SM VCTS FEW050CB SCT250
     FM042100 29006KT P6SM VCTS SCT050CB SCT150 BKN250=



000
FTUS42 KTBW 032330
TAFFMY
TAF
KFMY 032330Z 0400/0424 16005KT P6SM VCTS SCT050CB BKN100
      TEMPO 0400/0401 5SM -TSRA BKN050CB
     FM040300 VRB03KT P6SM SCT040 BKN100 OVC250
     FM040600 00000KT P6SM FEW040 SCT100 SCT250
     FM041500 14006KT P6SM SCT035 SCT250
     FM041800 21005KT P6SM VCTS SCT050CB BKN250
     FM042100 28008KT P6SM VCTS BKN050CB OVC100=



000
FTUS42 KTBW 032330
TAFTPA
TAF
KTPA 032330Z 0400/0424 32006KT P6SM FEW035 SCT050 BKN250
     FM040200 10005KT P6SM SCT050 BKN250
     FM040400 00000KT P6SM FEW050 SCT250
     FM041500 20004KT P6SM SCT035 SCT250
     FM042000 28006KT P6SM VCTS SCT005CB SCT150 BKN250=



000
FTUS42 KTBW 032330
TAFRSW
TAF
KRSW 032330Z 0400/0424 15005KT P6SM VCTS SCT050CB BKN100
      TEMPO 0400/0401 5SM -TSRA BKN050CB
     FM040300 VRB03KT P6SM SCT040 BKN100 OVC250
     FM040600 00000KT P6SM FEW040 SCT100 SCT250
     FM041500 14006KT P6SM SCT035 SCT250
     FM041800 21005KT P6SM VCTS SCT050CB BKN250
     FM042100 28008KT P6SM VCTS BKN050CB OVC100=



000
FTUS42 KTBW 032330
TAFPIE
TAF
KPIE 032330Z 0400/0424 30006KT P6SM FEW035 SCT050 BKN250
     FM040200 01003KT P6SM SCT050 BKN250
     FM040400 00000KT P6SM FEW050 SCT250
     FM041500 04005KT P6SM SCT035 SCT250
     FM041800 21004KT P6SM VCTS FEW050CB SCT250
     FM042100 29006KT P6SM VCTS SCT050CB SCT150 BKN250=



000
FTUS42 KTBW 032330
TAFSRQ
TAF
KSRQ 032330Z 0400/0424 31007KT P6SM FEW050 BKN250
     FM040300 VRB03KT P6SM SCT050 BKN250
     FM040600 00000KT P6SM FEW050 SCT250
     FM041500 18005KT P6SM SCT035 SCT250
     FM042000 26008KT P6SM VCTS SCT050CB SCT150 BKN250=



000
FTUS42 KTBW 032125 AAB
TAFTPA
TAF AMD
KTPA 032125Z 0321/0418 30005KT P6SM VCTS SCT035CB BKN050 BKN250
     FM040100 VRB03KT P6SM FEW050 BKN250
     FM041500 22007KT P6SM SCT035 SCT150=



000
FTUS42 KTBW 032059 AAA
TAFTPA
TAF AMD
KTPA 032059Z 0321/0418 30005KT P6SM BKN050 BKN250
     FM040100 VRB03KT P6SM FEW050 BKN250
     FM041500 22007KT P6SM SCT035 SCT150=



000
FTUS42 KTBW 032059 AAA
TAFTPA
TAF AMD
KTPA 032059Z 0321/0418 30005KT P6SM BKN050 BKN250
     FM040100 VRB03KT P6SM FEW050 BKN250
     FM041500 22007KT P6SM SCT035 SCT150=



000
FTUS42 KTBW 031751
TAFTPA
TAF
KTPA 031751Z 0318/0418 24008KT P6SM VCTS BKN045CB BKN150
      TEMPO 0318/0321 VRB15G25KT 3SM TSRA BKN030CB
     FM032200 30007KT P6SM VCTS SCT050CB BKN200
     FM040100 VRB03KT P6SM FEW050 BKN250
     FM041500 22007KT P6SM SCT035 SCT150=



000
FTUS42 KTBW 031751
TAFSRQ
TAF
KSRQ 031751Z 0318/0418 26008KT P6SM VCTS BKN040CB BKN150
     FM032100 28009KT P6SM VCTS SCT045CB BKN200
     FM040100 VRB04KT P6SM FEW050 BKN200
     FM041500 21007KT P6SM SCT035 SCT150=



000
FTUS42 KTBW 031751
TAFPIE
TAF
KPIE 031751Z 0318/0418 06009KT P6SM VCTS SCT035CB SCT150
      TEMPO 0318/0320 VRB15G28KT 3SM TSRA BKN030CB
     FM032100 29008KT P6SM VCTS SCT045CB BKN200
     FM040100 VRB04KT P6SM FEW050 BKN250
     FM041500 VRB06KT P6SM SCT035 SCT150=



000
FTUS42 KTBW 031751
TAFFMY
TAF
KFMY 031751Z 0318/0418 VRB06KT P6SM VCTS BKN045CB BKN150
      TEMPO 0320/0324 VRB15G25KT 3SM TSRA BKN030CB
     FM040100 11004KT P6SM FEW050 BKN250
     FM041500 15006KT P6SM SCT030 SCT150=



000
FTUS42 KTBW 031751
TAFRSW
TAF
KRSW 031751Z 0318/0418 16007KT P6SM VCTS BKN045CB BKN150
      TEMPO 0320/0324 VRB15G25KT 3SM TSRA BKN030CB
     FM040100 11004KT P6SM FEW050 BKN250
     FM041500 15006KT P6SM SCT030 SCT150=



000
FTUS42 KTBW 031725 AAA
TAFPIE
TAF AMD
KPIE 031725Z 0317/0412 06009KT P6SM VCTS SCT035CB SCT150
      TEMPO 0317/0319 VRB15G28KT 3SM TSRA BKN030CB
     FM032000 32008KT P6SM VCTS SCT045CB BKN200
     FM040100 VRB04KT P6SM FEW050 BKN250=



000
FTUS42 KTBW 031509 AAA
TAFTPA
TAF AMD
KTPA 031509Z 0315/0412 20007KT P6SM SCT035 SCT150
     FM031700 25008KT P6SM VCTS BKN040CB BKN150
     FM032200 30007KT P6SM VCTS SCT045CB BKN200
     FM040100 VRB03KT P6SM FEW050 BKN250=



000
FTUS42 KTBW 031128
TAFTPA
TAF
KTPA 031128Z 0312/0412 VRB05KT P6SM FEW250
     FM031600 24007KT P6SM VCTS SCT035CB SCT150
     FM032200 30007KT P6SM VCTS SCT045CB BKN200
     FM040100 VRB03KT P6SM FEW050 BKN250=



000
FTUS42 KTBW 031128
TAFRSW
TAF
KRSW 031128Z 0312/0412 VRB05KT P6SM FEW250
     FM031500 11006KT P6SM SCT035 SCT150
     FM031900 11007KT P6SM VCTS BKN045CB BKN150
     FM040100 10004KT P6SM FEW050 BKN250=



000
FTUS42 KTBW 031128
TAFPIE
TAF
KPIE 031128Z 0312/0412 VRB04KT P6SM FEW250
     FM031500 06007KT P6SM VCTS SCT035CB SCT150
     FM032000 32008KT P6SM VCTS SCT045CB BKN200
     FM040100 VRB04KT P6SM FEW050 BKN250=



000
FTUS42 KTBW 031128
TAFSRQ
TAF
KSRQ 031128Z 0312/0412 10005KT P6SM FEW250
     FM031500 24007KT P6SM VCTS SCT035CB SCT150
     FM032000 28009KT P6SM VCTS SCT045CB BKN200
     FM040100 VRB04KT P6SM FEW050 BKN200=



000
FTUS42 KTBW 031128
TAFFMY
TAF
KFMY 031128Z 0312/0412 10004KT P6SM FEW250
     FM031500 VRB06KT P6SM SCT035 SCT150
     FM031900 14008KT P6SM VCTS BKN045CB BKN150
     FM040100 11004KT P6SM FEW050 BKN250=



000
FTUS42 KTBW 031128
TAFPIE
TAF
KPIE 031128Z 0312/0412 VRB04KT P6SM FEW250
     FM031500 06007KT P6SM VCTS SCT035CB SCT150
     FM032000 32008KT P6SM VCTS SCT045CB BKN200
     FM040100 VRB04KT P6SM FEW050 BKN250=



000
FTUS42 KTBW 031128
TAFTPA
TAF
KTPA 031128Z 0312/0412 VRB05KT P6SM FEW250
     FM031600 24007KT P6SM VCTS SCT035CB SCT150
     FM032200 30007KT P6SM VCTS SCT045CB BKN200
     FM040100 VRB03KT P6SM FEW050 BKN250=



000
FTUS42 KTBW 031128
TAFSRQ
TAF
KSRQ 031128Z 0312/0412 10005KT P6SM FEW250
     FM031500 24007KT P6SM VCTS SCT035CB SCT150
     FM032000 28009KT P6SM VCTS SCT045CB BKN200
     FM040100 VRB04KT P6SM FEW050 BKN200=



000
FTUS42 KTBW 031128
TAFRSW
TAF
KRSW 031128Z 0312/0412 VRB05KT P6SM FEW250
     FM031500 11006KT P6SM SCT035 SCT150
     FM031900 11007KT P6SM VCTS BKN045CB BKN150
     FM040100 10004KT P6SM FEW050 BKN250=



000
FTUS42 KTBW 030901 AAA
TAFTPA
TAF AMD
KTPA 030901Z 0309/0406 VRB03KT P6SM FEW250
     FM031600 22005KT P6SM VCTS SCT035CB SCT250
     FM032200 30007KT P6SM VCSH SCT050 SCT120 BKN250
     FM040100 VRB03KT P6SM BKN250=



000
FTUS42 KTBW 030901 AAA
TAFTPA
TAF AMD
KTPA 030901Z 0309/0406 VRB03KT P6SM FEW250
     FM031600 22005KT P6SM VCTS SCT035CB SCT250
     FM032200 30007KT P6SM VCSH SCT050 SCT120 BKN250
     FM040100 VRB03KT P6SM BKN250=



000
FTUS42 KTBW 030525
TAFFMY
TAF
KFMY 030525Z 0306/0406 06006KT P6SM BKN250
     FM030900 12004KT P6SM SCT250
     FM031500 13005KT P6SM SCT030 SCT250
     FM031900 13007KT P6SM VCTS SCT040CB BKN250
     FM040100 12004KT P6SM SCT050 BKN250=



000
FTUS42 KTBW 030525
TAFSRQ
TAF
KSRQ 030525Z 0306/0406 12004KT P6SM BKN250
     FM030900 12004KT P6SM SCT250
     FM031600 22006KT P6SM VCTS SCT035CB SCT250
     FM040000 29008KT P6SM SCT050 SCT120 BKN250=



000
FTUS42 KTBW 030525
TAFRSW
TAF
KRSW 030525Z 0306/0406 10004KT P6SM BKN250
     FM030900 10004KT P6SM SCT250
     FM031500 14005KT P6SM SCT030 SCT250
     FM031900 14007KT P6SM VCTS SCT040CB BKN250
     FM040100 13004KT P6SM SCT050 BKN250=



000
FTUS42 KTBW 030525
TAFFMY
TAF
KFMY 030525Z 0306/0406 06006KT P6SM BKN250
     FM030900 12004KT P6SM SCT250
     FM031500 13005KT P6SM SCT030 SCT250
     FM031900 13007KT P6SM VCTS SCT040CB BKN250
     FM040100 12004KT P6SM SCT050 BKN250=



000
FTUS42 KTBW 030525
TAFRSW
TAF
KRSW 030525Z 0306/0406 10004KT P6SM BKN250
     FM030900 10004KT P6SM SCT250
     FM031500 14005KT P6SM SCT030 SCT250
     FM031900 14007KT P6SM VCTS SCT040CB BKN250
     FM040100 13004KT P6SM SCT050 BKN250=



000
FTUS42 KTBW 030525
TAFPIE
TAF
KPIE 030525Z 0306/0406 15005KT P6SM BKN250
     FM030800 14004KT P6SM SCT250
     FM031600 12005KT P6SM VCTS SCT035CB SCT250
     FM032100 31007KT P6SM VCSH SCT050 SCT120 BKN250
     FM040100 VRB03KT P6SM BKN250=



000
FTUS42 KTBW 030525
TAFTPA
TAF
KTPA 030525Z 0306/0406 13004KT P6SM BKN250
     FM030800 VRB03KT P6SM SCT250
     FM031600 22005KT P6SM VCTS SCT035CB SCT250
     FM032200 30007KT P6SM VCSH SCT050 SCT120 BKN250
     FM040100 VRB03KT P6SM BKN250=



000
FTUS42 KTBW 030525
TAFSRQ
TAF
KSRQ 030525Z 0306/0406 12004KT P6SM BKN250
     FM030900 12004KT P6SM SCT250
     FM031600 22006KT P6SM VCTS SCT035CB SCT250
     FM040000 29008KT P6SM SCT050 SCT120 BKN250=



000
FTUS42 KTBW 030316 AAA
TAFTPA
TAF AMD
KTPA 030316Z 0303/0324 13004KT P6SM BKN250
     FM030600 VRB03KT P6SM SCT250
     FM031600 22005KT P6SM VCTS SCT035CB SCT250
     FM032100 30007KT P6SM VCTS SCT050CB SCT120 BKN250=



000
FTUS42 KTBW 022342
TAFSRQ
TAF
KSRQ 022342Z 0300/0324 35006KT P6SM SCT120 BKN250
     FM030300 10004KT P6SM SCT250
     FM031600 22006KT P6SM VCTS SCT035CB SCT250
     FM032000 29008KT P6SM VCTS SCT045CB SCT120 BKN250=



000
FTUS42 KTBW 022342
TAFRSW
TAF
KRSW 022342Z 0300/0324 04006KT P6SM VCTS SCT050CB BKN100
      TEMPO 0300/0301 4SM TSRA BKN040CB
     FM030200 VRB03KT P6SM SCT100 BKN250
     FM031500 14006KT P6SM SCT030 SCT250
     FM031800 20004KT P6SM VCTS SCT050CB SCT100 BKN250
     FM032000 23008KT P6SM VCTS BKN050CB OVC100=



000
FTUS42 KTBW 022342
TAFFMY
TAF
KFMY 022342Z 0300/0324 06006KT P6SM VCTS SCT050CB BKN100
      TEMPO 0300/0301 4SM TSRA BKN040CB
     FM030200 10004KT P6SM SCT100 BKN250
     FM031500 13005KT P6SM SCT030 SCT250
     FM031800 16007KT P6SM VCTS SCT050CB SCT100 BKN250
     FM032000 24008KT P6SM VCTS BKN050CB OVC100=



000
FTUS42 KTBW 022342
TAFPIE
TAF
KPIE 022342Z 0300/0324 32006KT P6SM FEW100 BKN250
     FM030300 08004KT P6SM SCT250
     FM031600 12005KT P6SM VCTS SCT035CB SCT250
     FM032100 31007KT P6SM SCT045 SCT120 BKN250=



000
FTUS42 KTBW 022342
TAFTPA
TAF
KTPA 022342Z 0300/0324 32007KT P6SM FEW100 BKN250
     FM030300 10004KT P6SM SCT250
     FM031600 22005KT P6SM VCTS SCT035CB SCT250
     FM032100 30007KT P6SM VCTS SCT050CB SCT120 BKN250=



000
FTUS42 KTBW 022101 AAA
TAFTPA
TAF AMD
KTPA 022101Z 0221/0318 29009KT P6SM SCT045 BKN150 OVC250
     FM030100 32005KT P6SM FEW045 BKN250
     FM030500 VRB03KT P6SM SCT250
     FM031500 22007KT P6SM SCT030 SCT150=



000
FTUS42 KTBW 022101 AAA
TAFTPA
TAF AMD
KTPA 022101Z 0221/0318 29009KT P6SM SCT045 BKN150 OVC250
     FM030100 32005KT P6SM FEW045 BKN250
     FM030500 VRB03KT P6SM SCT250
     FM031500 22007KT P6SM SCT030 SCT150=



000
FTUS42 KTBW 021735
TAFSRQ
TAF
KSRQ 021735Z 0218/0318 25008KT P6SM VCTS SCT040CB SCT150
     FM022200 29008KT P6SM VCTS SCT045CB BKN150
     FM030200 VRB04KT P6SM FEW040 BKN250
     FM031500 22007KT P6SM SCT030 SCT150=



000
FTUS42 KTBW 021735
TAFFMY
TAF
KFMY 021735Z 0218/0318 22008KT P6SM VCTS BKN045CB BKN150
      TEMPO 0220/0224 VRB15G25KT 3SM TSRA BKN030CB
     FM030100 VRB05KT P6SM VCTS BKN050CB BKN200
     FM030300 VRB04KT P6SM FEW030 BKN250
     FM031500 14007KT P6SM SCT030 SCT150=



000
FTUS42 KTBW 021735
TAFRSW
TAF
KRSW 021735Z 0218/0318 22008KT P6SM VCTS BKN045CB BKN150
      TEMPO 0220/0224 VRB15G25KT 3SM TSRA BKN030CB
     FM030100 VRB05KT P6SM VCTS BKN050CB BKN200
     FM030300 VRB04KT P6SM FEW030 BKN250
     FM031500 14006KT P6SM SCT030 SCT150=



000
FTUS42 KTBW 021735
TAFTPA
TAF
KTPA 021735Z 0218/0318 25008KT P6SM VCTS BKN040CB BKN150
      TEMPO 0218/0220 VRB20G30KT 3SM TSRA BKN030CB
     FM022000 29009KT P6SM SCT045 BKN200
     FM030100 32005KT P6SM FEW045 BKN250
     FM030500 VRB03KT P6SM SCT250
     FM031500 22007KT P6SM SCT030 SCT150=



000
FTUS42 KTBW 021735
TAFPIE
TAF
KPIE 021735Z 0218/0318 30009KT P6SM VCTS BKN035CB BKN150
     FM022000 32008KT P6SM SCT040 BKN200
     FM030100 33005KT P6SM FEW040 BKN250
     FM030500 VRB03KT P6SM FEW030 SCT250
     FM031500 08007KT P6SM SCT030 SCT150=



000
FTUS42 KTBW 021735
TAFSRQ
TAF
KSRQ 021735Z 0218/0318 25008KT P6SM VCTS SCT040CB SCT150
     FM022200 29008KT P6SM VCTS SCT045CB BKN150
     FM030200 VRB04KT P6SM FEW040 BKN250
     FM031500 22007KT P6SM SCT030 SCT150=



000
FTUS42 KTBW 021735
TAFPIE
TAF
KPIE 021735Z 0218/0318 30009KT P6SM VCTS BKN035CB BKN150
     FM022000 32008KT P6SM SCT040 BKN200
     FM030100 33005KT P6SM FEW040 BKN250
     FM030500 VRB03KT P6SM FEW030 SCT250
     FM031500 08007KT P6SM SCT030 SCT150=



000
FTUS42 KTBW 021735
TAFTPA
TAF
KTPA 021735Z 0218/0318 25008KT P6SM VCTS BKN040CB BKN150
      TEMPO 0218/0220 VRB20G30KT 3SM TSRA BKN030CB
     FM022000 29009KT P6SM SCT045 BKN200
     FM030100 32005KT P6SM FEW045 BKN250
     FM030500 VRB03KT P6SM SCT250
     FM031500 22007KT P6SM SCT030 SCT150=



000
FTUS42 KTBW 021735
TAFRSW
TAF
KRSW 021735Z 0218/0318 22008KT P6SM VCTS BKN045CB BKN150
      TEMPO 0220/0224 VRB15G25KT 3SM TSRA BKN030CB
     FM030100 VRB05KT P6SM VCTS BKN050CB BKN200
     FM030300 VRB04KT P6SM FEW030 BKN250
     FM031500 14006KT P6SM SCT030 SCT150=



000
FTUS42 KTBW 021735
TAFFMY
TAF
KFMY 021735Z 0218/0318 22008KT P6SM VCTS BKN045CB BKN150
      TEMPO 0220/0224 VRB15G25KT 3SM TSRA BKN030CB
     FM030100 VRB05KT P6SM VCTS BKN050CB BKN200
     FM030300 VRB04KT P6SM FEW030 BKN250
     FM031500 14007KT P6SM SCT030 SCT150=



000
FTUS42 KTBW 021618 AAC
TAFTPA
TAF AMD
KTPA 021618Z 0216/0312 25008KT P6SM VCTS SCT040CB SCT150
      TEMPO 0216/0218 VRB12G22KT 3SM TSRA BKN030CB
     FM022000 28009KT P6SM SCT045 BKN200
     FM030100 32005KT P6SM FEW045 BKN250
     FM030500 VRB03KT P6SM SCT250=



000
FTUS42 KTBW 021618 AAB
TAFPIE
TAF AMD
KPIE 021618Z 0216/0312 06007KT P6SM VCTS SCT035CB SCT150
      TEMPO 0216/0218 VRB12G22KT 3SM TSRA BKN030CB
     FM021800 26008KT P6SM VCTS SCT035CB BKN150
     FM022000 30008KT P6SM SCT040 BKN200
     FM030100 33005KT P6SM FEW040 BKN250
     FM030500 VRB03KT P6SM FEW030 SCT250=



000
FTUS42 KTBW 021618 AAC
TAFTPA
TAF AMD
KTPA 021618Z 0216/0312 25008KT P6SM VCTS SCT040CB SCT150
      TEMPO 0216/0218 VRB12G22KT 3SM TSRA BKN030CB
     FM022000 28009KT P6SM SCT045 BKN200
     FM030100 32005KT P6SM FEW045 BKN250
     FM030500 VRB03KT P6SM SCT250=



000
FTUS42 KTBW 021531 AAB
TAFTPA
TAF AMD
KTPA 021531Z 0216/0312 25008KT P6SM VCTS SCT040CB SCT150
     FM022000 28009KT P6SM SCT045 BKN200
     FM030100 32005KT P6SM FEW045 BKN250
     FM030500 VRB03KT P6SM SCT250=



000
FTUS42 KTBW 021530 AAA
TAFPIE
TAF AMD
KPIE 021530Z 0216/0312 06007KT P6SM VCTS SCT035CB SCT150
     FM021700 26008KT P6SM VCTS SCT035CB BKN150
     FM022000 30008KT P6SM SCT040 BKN200
     FM030100 33005KT P6SM FEW040 BKN250
     FM030500 VRB03KT P6SM FEW030 SCT250=



000
FTUS42 KTBW 021458 AAA
TAFTPA
TAF AMD
KTPA 021458Z 0215/0312 24005KT P6SM SCT035
     FM021700 25008KT P6SM VCTS SCT040CB SCT150
     FM022100 28009KT P6SM SCT045 BKN200
     FM030100 32005KT P6SM FEW045 BKN250
     FM030500 VRB03KT P6SM SCT250=



    US Dept of Commerce
    National Oceanic and Atmospheric Administration
    National Weather Service
    1325 East West Highway
    Silver Spring, MD 20910
    Page Author: NWS Internet Services Team
Disclaimer
Information Quality
Credits
Glossary
Privacy Policy
Freedom of Information Act (FOIA)
About Us
Career Opportunities